sensor_id;sensor_type;location;lat;lon;timestamp;pressure;altitude;pressure_sealevel;temperature;humidity
46007;BME280;31738;50.188;8.524;2024-01-16T00:01:02;98071.56;;;1.81;79.67
46007;BME280;31738;50.188;8.524;2024-01-16T00:04:22;98072.38;;;1.82;79.48
46007;BME280;31738;50.188;8.524;2024-01-16T00:07:10;98079.28;;;1.83;79.72
46007;BME280;31738;50.188;8.524;2024-01-16T00:09:41;98080.44;;;1.87;79.72
46007;BME280;31738;50.188;8.524;2024-01-16T00:12:32;98079.38;;;1.88;79.72
46007;BME280;31738;50.188;8.524;2024-01-16T00:15:08;98092.72;;;1.93;79.63
46007;BME280;31738;50.188;8.524;2024-01-16T00:17:48;98086.97;;;1.96;79.24
46007;BME280;31738;50.188;8.524;2024-01-16T00:20:19;98087.53;;;1.98;79.63
46007;BME280;31738;50.188;8.524;2024-01-16T00:23:02;98086.25;;;2.00;79.51
46007;BME280;31738;50.188;8.524;2024-01-16T00:25:43;98091.53;;;2.00;79.50
46007;BME280;31738;50.188;8.524;2024-01-16T00:28:11;98084.97;;;2.03;79.42
46007;BME280;31738;50.188;8.524;2024-01-16T00:30:48;98086.59;;;2.04;79.55
46007;BME280;31738;50.188;8.524;2024-01-16T00:33:54;98094.75;;;2.02;79.82
46007;BME280;31738;50.188;8.524;2024-01-16T00:43:17;98096.63;;;1.90;79.66
46007;BME280;31738;50.188;8.524;2024-01-16T00:46:09;98110.88;;;1.89;79.86
46007;BME280;31738;50.188;8.524;2024-01-16T00:48:46;98106.41;;;1.90;79.76
46007;BME280;31738;50.188;8.524;2024-01-16T00:51:19;98113.28;;;1.91;80.06
46007;BME280;31738;50.188;8.524;2024-01-16T00:54:22;98113.28;;;1.91;79.65
46007;BME280;31738;50.188;8.524;2024-01-16T00:57:02;98111.69;;;1.90;79.74
46007;BME280;31738;50.188;8.524;2024-01-16T00:59:52;98105.34;;;1.91;80.17
46007;BME280;31738;50.188;8.524;2024-01-16T01:02:30;98111.69;;;1.90;80.20
46007;BME280;31738;50.188;8.524;2024-01-16T01:06:11;98113.16;;;1.86;80.13
46007;BME280;31738;50.188;8.524;2024-01-16T01:12:19;98106.88;;;1.87;79.88
46007;BME280;31738;50.188;8.524;2024-01-16T01:15:11;98116.63;;;1.86;79.84
46007;BME280;31738;50.188;8.524;2024-01-16T01:22:04;98115.16;;;1.78;80.13
46007;BME280;31738;50.188;8.524;2024-01-16T01:24:50;98111.22;;;1.81;80.05
46007;BME280;31738;50.188;8.524;2024-01-16T01:27:40;98115.25;;;1.84;80.03
46007;BME280;31738;50.188;8.524;2024-01-16T01:30:23;98119.16;;;1.81;80.26
46007;BME280;31738;50.188;8.524;2024-01-16T01:34:02;98126.53;;;1.79;80.04
46007;BME280;31738;50.188;8.524;2024-01-16T01:37:53;98121.94;;;1.74;80.20
46007;BME280;31738;50.188;8.524;2024-01-16T01:45:29;98127.91;;;1.58;80.12
46007;BME280;31738;50.188;8.524;2024-01-16T01:54:55;98134.56;;;1.61;80.27
46007;BME280;31738;50.188;8.524;2024-01-16T01:58:40;98137.00;;;1.62;80.15
46007;BME280;31738;50.188;8.524;2024-01-16T02:09:06;98145.38;;;1.48;80.11
46007;BME280;31738;50.188;8.524;2024-01-16T02:12:08;98148.16;;;1.53;80.28
46007;BME280;31738;50.188;8.524;2024-01-16T02:19:05;98150.88;;;1.58;80.50
46007;BME280;31738;50.188;8.524;2024-01-16T02:26:03;98154.34;;;1.58;80.49
46007;BME280;31738;50.188;8.524;2024-01-16T02:29:02;98160.22;;;1.60;80.69
46007;BME280;31738;50.188;8.524;2024-01-16T02:36:13;98170.78;;;1.60;80.61
46007;BME280;31738;50.188;8.524;2024-01-16T02:53:21;98162.63;;;1.39;81.58
46007;BME280;31738;50.188;8.524;2024-01-16T03:07:03;98166.28;;;1.26;81.70
46007;BME280;31738;50.188;8.524;2024-01-16T03:09:36;98167.88;;;1.27;81.18
46007;BME280;31738;50.188;8.524;2024-01-16T03:12:22;98172.13;;;1.28;81.72
46007;BME280;31738;50.188;8.524;2024-01-16T03:15:56;98168.47;;;1.29;81.52
46007;BME280;31738;50.188;8.524;2024-01-16T03:18:41;98171.09;;;1.29;81.63
46007;BME280;31738;50.188;8.524;2024-01-16T03:22:21;98180.16;;;1.33;81.45
46007;BME280;31738;50.188;8.524;2024-01-16T03:27:57;98168.91;;;1.26;81.78
46007;BME280;31738;50.188;8.524;2024-01-16T03:31:15;98190.03;;;1.26;82.09
46007;BME280;31738;50.188;8.524;2024-01-16T03:34:09;98190.03;;;1.26;82.04
46007;BME280;31738;50.188;8.524;2024-01-16T03:36:59;98188.00;;;1.28;82.04
46007;BME280;31738;50.188;8.524;2024-01-16T03:40:13;98181.06;;;1.27;81.90
46007;BME280;31738;50.188;8.524;2024-01-16T03:47:55;98182.00;;;1.21;81.71
46007;BME280;31738;50.188;8.524;2024-01-16T03:53:35;98172.00;;;1.23;82.17
46007;BME280;31738;50.188;8.524;2024-01-16T03:59:42;98178.44;;;1.27;81.85
46007;BME280;31738;50.188;8.524;2024-01-16T04:02:08;98183.50;;;1.29;81.91
46007;BME280;31738;50.188;8.524;2024-01-16T04:05:12;98184.44;;;1.34;81.91
46007;BME280;31738;50.188;8.524;2024-01-16T04:14:48;98179.25;;;1.28;81.90
46007;BME280;31738;50.188;8.524;2024-01-16T04:17:37;98183.84;;;1.32;82.24
46007;BME280;31738;50.188;8.524;2024-01-16T04:23:42;98174.09;;;1.33;81.83
46007;BME280;31738;50.188;8.524;2024-01-16T04:27:10;98186.25;;;1.34;81.83
46007;BME280;31738;50.188;8.524;2024-01-16T04:30:05;98173.75;;;1.29;82.26
46007;BME280;31738;50.188;8.524;2024-01-16T04:33:35;98174.09;;;1.33;81.92
46007;BME280;31738;50.188;8.524;2024-01-16T04:37:02;98178.78;;;1.31;81.90
46007;BME280;31738;50.188;8.524;2024-01-16T04:40:26;98174.31;;;1.31;82.11
46007;BME280;31738;50.188;8.524;2024-01-16T04:43:24;98184.31;;;1.29;81.89
46007;BME280;31738;50.188;8.524;2024-01-16T04:47:25;98196.47;;;1.30;81.83
46007;BME280;31738;50.188;8.524;2024-01-16T04:50:49;98202.56;;;1.31;81.98
46007;BME280;31738;50.188;8.524;2024-01-16T05:00:59;98204.84;;;1.27;82.03
46007;BME280;31738;50.188;8.524;2024-01-16T05:10:47;98190.03;;;1.26;82.53
46007;BME280;31738;50.188;8.524;2024-01-16T05:14:05;98182.34;;;1.25;82.16
46007;BME280;31738;50.188;8.524;2024-01-16T05:16:36;98176.59;;;1.28;82.51
46007;BME280;31738;50.188;8.524;2024-01-16T05:20:14;98180.53;;;1.25;82.16
46007;BME280;31738;50.188;8.524;2024-01-16T05:27:49;98164.53;;;1.20;82.29
46007;BME280;31738;50.188;8.524;2024-01-16T05:30:19;98160.41;;;1.24;82.24
46007;BME280;31738;50.188;8.524;2024-01-16T05:33:30;98151.47;;;1.25;82.20
46007;BME280;31738;50.188;8.524;2024-01-16T05:40:38;98145.94;;;1.15;82.24
46007;BME280;31738;50.188;8.524;2024-01-16T05:44:06;98146.38;;;1.12;82.59
46007;BME280;31738;50.188;8.524;2024-01-16T05:51:13;98144.97;;;0.98;82.42
46007;BME280;31738;50.188;8.524;2024-01-16T05:54:19;98146.59;;;0.99;82.52
46007;BME280;31738;50.188;8.524;2024-01-16T05:57:50;98143.84;;;0.94;82.60
46007;BME280;31738;50.188;8.524;2024-01-16T06:00:53;98134.19;;;0.88;82.46
46007;BME280;31738;50.188;8.524;2024-01-16T06:04:02;98119.94;;;0.89;82.61
46007;BME280;31738;50.188;8.524;2024-01-16T06:08:16;98118.91;;;0.79;83.02
46007;BME280;31738;50.188;8.524;2024-01-16T06:22:16;98108.88;;;0.69;82.65
46007;BME280;31738;50.188;8.524;2024-01-16T06:25:11;98101.66;;;0.65;83.00
46007;BME280;31738;50.188;8.524;2024-01-16T06:27:53;98103.06;;;0.67;82.83
46007;BME280;31738;50.188;8.524;2024-01-16T06:30:18;98090.19;;;0.71;82.78
46007;BME280;31738;50.188;8.524;2024-01-16T06:32:48;98086.09;;;0.75;82.82
46007;BME280;31738;50.188;8.524;2024-01-16T06:35:22;98084.59;;;0.79;82.56
46007;BME280;31738;50.188;8.524;2024-01-16T06:38:20;98081.72;;;0.80;82.65
46007;BME280;31738;50.188;8.524;2024-01-16T06:40:49;98089.19;;;0.83;83.10
46007;BME280;31738;50.188;8.524;2024-01-16T06:43:57;98091.38;;;0.86;82.78
46007;BME280;31738;50.188;8.524;2024-01-16T06:46:46;98096.66;;;0.86;82.89
46007;BME280;31738;50.188;8.524;2024-01-16T06:49:34;98094.81;;;0.87;83.02
46007;BME280;31738;50.188;8.524;2024-01-16T06:52:02;98098.84;;;0.89;82.64
46007;BME280;31738;50.188;8.524;2024-01-16T06:54:28;98085.75;;;0.94;82.60
46007;BME280;31738;50.188;8.524;2024-01-16T06:56:54;98086.91;;;0.98;82.80
46007;BME280;31738;50.188;8.524;2024-01-16T06:59:46;98101.16;;;0.97;82.39
46007;BME280;31738;50.188;8.524;2024-01-16T07:02:14;98090.59;;;0.97;82.60
46007;BME280;31738;50.188;8.524;2024-01-16T07:04:40;98092.19;;;0.98;82.02
46007;BME280;31738;50.188;8.524;2024-01-16T07:13:15;98101.59;;;0.94;82.39
46007;BME280;31738;50.188;8.524;2024-01-16T07:16:16;98104.81;;;0.96;82.07
46007;BME280;31738;50.188;8.524;2024-01-16T07:19:25;98111.34;;;0.94;82.18
46007;BME280;31738;50.188;8.524;2024-01-16T07:22:37;98113.75;;;0.95;81.91
46007;BME280;31738;50.188;8.524;2024-01-16T07:28:18;98122.84;;;0.99;81.46
46007;BME280;31738;50.188;8.524;2024-01-16T07:31:30;98133.50;;;1.04;81.69
46007;BME280;31738;50.188;8.524;2024-01-16T07:34:22;98133.50;;;1.04;81.36
46007;BME280;31738;50.188;8.524;2024-01-16T07:37:11;98135.13;;;1.05;81.64
46007;BME280;31738;50.188;8.524;2024-01-16T07:39:55;98141.44;;;1.04;81.18
46007;BME280;31738;50.188;8.524;2024-01-16T07:42:24;98148.34;;;1.05;81.54
46007;BME280;31738;50.188;8.524;2024-01-16T07:45:08;98156.59;;;0.97;81.10
46007;BME280;31738;50.188;8.524;2024-01-16T07:48:04;98159.75;;;0.88;80.85
46007;BME280;31738;50.188;8.524;2024-01-16T07:54:10;98172.94;;;0.76;81.41
46007;BME280;31738;50.188;8.524;2024-01-16T07:56:52;98171.75;;;0.72;81.42
46007;BME280;31738;50.188;8.524;2024-01-16T07:59:23;98171.53;;;0.74;81.39
46007;BME280;31738;50.188;8.524;2024-01-16T08:01:50;98167.28;;;0.73;81.57
46007;BME280;31738;50.188;8.524;2024-01-16T08:04:37;98166.25;;;0.74;81.38
46007;BME280;31738;50.188;8.524;2024-01-16T08:07:20;98175.88;;;0.68;80.91
46007;BME280;31738;50.188;8.524;2024-01-16T08:10:10;98175.75;;;0.63;81.56
46007;BME280;31738;50.188;8.524;2024-01-16T08:16:10;98171.97;;;0.59;81.52
46007;BME280;31738;50.188;8.524;2024-01-16T08:19:02;98169.47;;;0.64;81.55
46007;BME280;31738;50.188;8.524;2024-01-16T08:22:23;98170.47;;;0.63;81.31
46007;BME280;31738;50.188;8.524;2024-01-16T08:28:54;98173.00;;;0.58;81.17
46007;BME280;31738;50.188;8.524;2024-01-16T08:31:36;98172.41;;;0.56;81.60
46007;BME280;31738;50.188;8.524;2024-01-16T08:34:56;98174.31;;;0.49;81.01
46007;BME280;31738;50.188;8.524;2024-01-16T08:38:30;98181.00;;;0.52;81.00
46007;BME280;31738;50.188;8.524;2024-01-16T08:41:00;98180.91;;;0.58;80.97
46007;BME280;31738;50.188;8.524;2024-01-16T08:43:33;98180.78;;;0.65;80.97
46007;BME280;31738;50.188;8.524;2024-01-16T08:46:17;98181.75;;;0.70;81.29
46007;BME280;31738;50.188;8.524;2024-01-16T08:48:53;98191.03;;;0.73;80.67
46007;BME280;31738;50.188;8.524;2024-01-16T08:51:55;98187.59;;;0.72;81.05
46007;BME280;31738;50.188;8.524;2024-01-16T08:54:50;98183.72;;;0.75;81.04
46007;BME280;31738;50.188;8.524;2024-01-16T08:57:45;98187.50;;;0.79;80.43
46007;BME280;31738;50.188;8.524;2024-01-16T09:00:41;98183.03;;;0.79;81.25
46007;BME280;31738;50.188;8.524;2024-01-16T09:03:45;98197.25;;;0.78;80.64
46007;BME280;31738;50.188;8.524;2024-01-16T09:07:08;98193.00;;;0.77;80.78
46007;BME280;31738;50.188;8.524;2024-01-16T09:10:02;98185.91;;;0.78;80.60
46007;BME280;31738;50.188;8.524;2024-01-16T09:12:38;98181.09;;;0.86;80.72
46007;BME280;31738;50.188;8.524;2024-01-16T09:15:25;98175.75;;;1.04;80.28
46007;BME280;31738;50.188;8.524;2024-01-16T09:18:03;98174.19;;;1.26;80.36
46007;BME280;31738;50.188;8.524;2024-01-16T09:20:31;98174.69;;;1.46;80.41
46007;BME280;31738;50.188;8.524;2024-01-16T09:23:18;98176.41;;;1.64;79.88
46007;BME280;31738;50.188;8.524;2024-01-16T09:26:05;98182.28;;;1.77;79.32
46007;BME280;31738;50.188;8.524;2024-01-16T09:28:33;98192.81;;;1.89;79.48
46007;BME280;31738;50.188;8.524;2024-01-16T09:31:06;98203.41;;;2.01;79.18
46007;BME280;31738;50.188;8.524;2024-01-16T09:33:54;98197.19;;;2.07;79.46
46007;BME280;31738;50.188;8.524;2024-01-16T09:36:39;98212.91;;;2.13;79.20
46007;BME280;31738;50.188;8.524;2024-01-16T09:39:18;98227.75;;;2.14;79.21
46007;BME280;31738;50.188;8.524;2024-01-16T09:41:57;98223.38;;;2.20;78.88
46007;BME280;31738;50.188;8.524;2024-01-16T09:44:48;98224.84;;;2.27;79.00
46007;BME280;31738;50.188;8.524;2024-01-16T09:47:56;98237.84;;;2.29;78.88
46007;BME280;31738;50.188;8.524;2024-01-16T09:50:30;98229.56;;;2.37;79.00
46007;BME280;31738;50.188;8.524;2024-01-16T09:53:19;98238.50;;;2.47;78.35
46007;BME280;31738;50.188;8.524;2024-01-16T09:56:01;98248.38;;;2.52;78.33
46007;BME280;31738;50.188;8.524;2024-01-16T09:59:02;98247.56;;;2.63;78.35
46007;BME280;31738;50.188;8.524;2024-01-16T10:02:01;98246.84;;;2.67;77.75
46007;BME280;31738;50.188;8.524;2024-01-16T10:11:25;98265.72;;;2.71;77.69
46007;BME280;31738;50.188;8.524;2024-01-16T10:14:07;98262.28;;;2.70;77.55
46007;BME280;31738;50.188;8.524;2024-01-16T10:17:35;98259.97;;;2.74;77.97
46007;BME280;31738;50.188;8.524;2024-01-16T10:26:37;98249.19;;;2.92;77.08
46007;BME280;31738;50.188;8.524;2024-01-16T10:29:58;98252.91;;;2.91;76.85
46007;BME280;31738;50.188;8.524;2024-01-16T10:32:51;98254.59;;;2.97;77.41
46007;BME280;31738;50.188;8.524;2024-01-16T10:35:50;98253.06;;;3.01;77.27
46007;BME280;31738;50.188;8.524;2024-01-16T10:38:30;98259.88;;;2.97;77.08
46007;BME280;31738;50.188;8.524;2024-01-16T10:45:52;98254.97;;;2.89;76.85
46007;BME280;31738;50.188;8.524;2024-01-16T10:49:13;98248.84;;;2.88;77.31
46007;BME280;31738;50.188;8.524;2024-01-16T10:53:39;98248.72;;;2.95;76.92
46007;BME280;31738;50.188;8.524;2024-01-16T10:56:56;98240.19;;;2.93;76.79
46007;BME280;31738;50.188;8.524;2024-01-16T11:00:44;98239.94;;;3.06;76.85
46007;BME280;31738;50.188;8.524;2024-01-16T11:04:40;98236.91;;;3.14;76.81
46007;BME280;31738;50.188;8.524;2024-01-16T11:07:55;98233.94;;;3.27;76.20
46007;BME280;31738;50.188;8.524;2024-01-16T11:11:09;98233.88;;;3.38;75.48
46007;BME280;31738;50.188;8.524;2024-01-16T11:14:13;98225.53;;;3.46;75.72
46007;BME280;31738;50.188;8.524;2024-01-16T11:22:13;98242.81;;;3.04;76.39
46007;BME280;31738;50.188;8.524;2024-01-16T11:25:30;98227.81;;;3.10;76.35
46007;BME280;31738;50.188;8.524;2024-01-16T11:28:58;98221.25;;;3.12;75.86
46007;BME280;31738;50.188;8.524;2024-01-16T11:36:00;98205.59;;;3.11;75.24
46007;BME280;31738;50.188;8.524;2024-01-16T11:42:35;98192.34;;;3.11;76.00
46007;BME280;31738;50.188;8.524;2024-01-16T11:45:48;98187.94;;;3.16;76.29
46007;BME280;31738;50.188;8.524;2024-01-16T11:48:40;98182.56;;;3.28;76.07
46007;BME280;31738;50.188;8.524;2024-01-16T11:51:40;98178.97;;;3.34;75.29
46007;BME280;31738;50.188;8.524;2024-01-16T11:54:15;98178.28;;;3.27;75.28
46007;BME280;31738;50.188;8.524;2024-01-16T12:03:56;98166.91;;;3.26;75.61
46007;BME280;31738;50.188;8.524;2024-01-16T12:07:59;98158.53;;;3.18;75.21
46007;BME280;31738;50.188;8.524;2024-01-16T12:14:28;98164.50;;;3.25;75.19
46007;BME280;31738;50.188;8.524;2024-01-16T12:18:32;98162.97;;;3.29;75.58
46007;BME280;31738;50.188;8.524;2024-01-16T12:21:53;98161.44;;;3.33;75.13
46007;BME280;31738;50.188;8.524;2024-01-16T12:24:49;98157.91;;;3.27;74.80
46007;BME280;31738;50.188;8.524;2024-01-16T12:27:34;98161.44;;;3.33;75.39
46007;BME280;31738;50.188;8.524;2024-01-16T12:30:17;98156.31;;;3.43;74.60
46007;BME280;31738;50.188;8.524;2024-01-16T12:41:13;98144.91;;;3.26;74.99
46007;BME280;31738;50.188;8.524;2024-01-16T12:43:57;98153.56;;;3.21;74.58
46007;BME280;31738;50.188;8.524;2024-01-16T12:47:29;98145.19;;;3.13;74.79
46007;BME280;31738;50.188;8.524;2024-01-16T12:50:40;98139.50;;;3.04;74.45
46007;BME280;31738;50.188;8.524;2024-01-16T12:54:37;98138.78;;;2.92;74.21
46007;BME280;31738;50.188;8.524;2024-01-16T13:00:37;98141.25;;;2.82;75.02
46007;BME280;31738;50.188;8.524;2024-01-16T13:03:53;98134.59;;;2.80;74.76
46007;BME280;31738;50.188;8.524;2024-01-16T13:07:07;98136.81;;;2.71;75.29
46007;BME280;31738;50.188;8.524;2024-01-16T13:10:22;98125.56;;;2.64;75.22
46007;BME280;31738;50.188;8.524;2024-01-16T13:12:47;98117.88;;;2.63;75.39
46007;BME280;31738;50.188;8.524;2024-01-16T13:15:21;98115.22;;;2.63;75.12
46007;BME280;31738;50.188;8.524;2024-01-16T13:17:48;98117.28;;;2.61;75.21
46007;BME280;31738;50.188;8.524;2024-01-16T13:20:13;98117.53;;;2.59;75.45
46007;BME280;31738;50.188;8.524;2024-01-16T13:22:41;98117.75;;;2.58;75.27
46007;BME280;31738;50.188;8.524;2024-01-16T13:25:12;98120.66;;;2.56;75.40
46007;BME280;31738;50.188;8.524;2024-01-16T13:27:43;98115.59;;;2.55;75.30
46007;BME280;31738;50.188;8.524;2024-01-16T13:30:27;98112.41;;;2.53;74.87
46007;BME280;31738;50.188;8.524;2024-01-16T13:32:58;98120.56;;;2.51;74.90
46007;BME280;31738;50.188;8.524;2024-01-16T13:35:24;98111.59;;;2.52;75.01
46007;BME280;31738;50.188;8.524;2024-01-16T13:37:58;98115.03;;;2.53;74.88
46007;BME280;31738;50.188;8.524;2024-01-16T13:40:24;98118.25;;;2.55;74.93
46007;BME280;31738;50.188;8.524;2024-01-16T13:42:49;98108.72;;;2.54;74.76
46007;BME280;31738;50.188;8.524;2024-01-16T13:45:15;98100.53;;;2.55;74.87
46007;BME280;31738;50.188;8.524;2024-01-16T13:47:45;98096.81;;;2.56;74.74
46007;BME280;31738;50.188;8.524;2024-01-16T13:50:10;98099.25;;;2.58;74.79
46007;BME280;31738;50.188;8.524;2024-01-16T13:52:36;98101.97;;;2.63;74.28
46007;BME280;31738;50.188;8.524;2024-01-16T13:55:08;98102.63;;;2.70;74.43
46007;BME280;31738;50.188;8.524;2024-01-16T13:57:34;98100.41;;;2.78;74.43
46007;BME280;31738;50.188;8.524;2024-01-16T14:00:10;98096.66;;;2.91;74.35
46007;BME280;31738;50.188;8.524;2024-01-16T14:02:49;98095.22;;;3.00;73.92
46007;BME280;31738;50.188;8.524;2024-01-16T14:05:18;98095.06;;;3.06;73.55
46007;BME280;31738;50.188;8.524;2024-01-16T14:07:48;98092.41;;;3.06;73.50
46007;BME280;31738;50.188;8.524;2024-01-16T14:10:23;98096.91;;;3.06;73.63
46007;BME280;31738;50.188;8.524;2024-01-16T14:12:56;98107.50;;;3.06;73.48
46007;BME280;31738;50.188;8.524;2024-01-16T14:15:22;98112.78;;;3.06;73.54
46007;BME280;31738;50.188;8.524;2024-01-16T14:17:57;98114.63;;;3.05;73.20
46007;BME280;31738;50.188;8.524;2024-01-16T14:20:25;98114.88;;;3.04;73.20
46007;BME280;31738;50.188;8.524;2024-01-16T14:23:12;98113.84;;;3.05;73.47
46007;BME280;31738;50.188;8.524;2024-01-16T14:25:41;98113.50;;;3.01;73.90
46007;BME280;31738;50.188;8.524;2024-01-16T14:28:08;98115.34;;;3.01;73.18
46007;BME280;31738;50.188;8.524;2024-01-16T14:30:40;98121.69;;;3.00;73.33
46007;BME280;31738;50.188;8.524;2024-01-16T14:33:15;98113.75;;;3.00;73.92
46007;BME280;31738;50.188;8.524;2024-01-16T14:35:40;98115.81;;;2.98;73.79
46007;BME280;31738;50.188;8.524;2024-01-16T14:38:11;98126.91;;;2.95;73.40
46007;BME280;31738;50.188;8.524;2024-01-16T14:40:45;98117.84;;;2.91;73.82
46007;BME280;31738;50.188;8.524;2024-01-16T14:43:26;98122.56;;;2.89;73.93
46007;BME280;31738;50.188;8.524;2024-01-16T14:45:52;98120.16;;;2.87;73.68
46007;BME280;31738;50.188;8.524;2024-01-16T14:48:20;98123.38;;;2.89;73.90
46007;BME280;31738;50.188;8.524;2024-01-16T14:50:57;98124.50;;;2.93;73.51
46007;BME280;31738;50.188;8.524;2024-01-16T14:53:22;98117.44;;;2.99;73.83
46007;BME280;31738;50.188;8.524;2024-01-16T14:55:52;98115.91;;;3.03;73.86
46007;BME280;31738;50.188;8.524;2024-01-16T14:58:20;98104.75;;;3.01;73.83
46007;BME280;31738;50.188;8.524;2024-01-16T15:00:54;98112.94;;;2.99;73.47
46007;BME280;31738;50.188;8.524;2024-01-16T15:03:25;98107.78;;;2.93;73.81
46007;BME280;31738;50.188;8.524;2024-01-16T15:05:53;98111.50;;;2.92;73.80
46007;BME280;31738;50.188;8.524;2024-01-16T15:08:27;98105.63;;;2.90;74.18
46007;BME280;31738;50.188;8.524;2024-01-16T15:10:58;98114.63;;;2.89;74.03
46007;BME280;31738;50.188;8.524;2024-01-16T15:13:46;98108.69;;;2.82;74.00
46007;BME280;31738;50.188;8.524;2024-01-16T15:16:19;98106.75;;;2.77;73.76
46007;BME280;31738;50.188;8.524;2024-01-16T15:18:53;98107.91;;;2.70;74.29
46007;BME280;31738;50.188;8.524;2024-01-16T15:21:25;98101.75;;;2.64;74.28
46007;BME280;31738;50.188;8.524;2024-01-16T15:23:52;98103.28;;;2.60;74.41
46007;BME280;31738;50.188;8.524;2024-01-16T15:26:19;98102.47;;;2.60;74.50
46007;BME280;31738;50.188;8.524;2024-01-16T15:28:52;98106.41;;;2.57;74.31
46007;BME280;31738;50.188;8.524;2024-01-16T15:31:28;98101.34;;;2.56;74.36
46007;BME280;31738;50.188;8.524;2024-01-16T15:33:58;98101.81;;;2.53;74.25
46007;BME280;31738;50.188;8.524;2024-01-16T15:36:29;98099.41;;;2.51;74.23
46007;BME280;31738;50.188;8.524;2024-01-16T15:39:18;98103.78;;;2.46;74.55
46007;BME280;31738;50.188;8.524;2024-01-16T15:42:17;98104.72;;;2.40;74.63
46007;BME280;31738;50.188;8.524;2024-01-16T15:45:03;98099.81;;;2.32;74.84
46007;BME280;31738;50.188;8.524;2024-01-16T15:47:36;98103.97;;;2.28;75.05
46007;BME280;31738;50.188;8.524;2024-01-16T15:50:11;98087.00;;;2.24;74.49
46007;BME280;31738;50.188;8.524;2024-01-16T15:52:51;98083.09;;;2.15;74.71
46007;BME280;31738;50.188;8.524;2024-01-16T15:55:25;98089.00;;;2.05;74.99
46007;BME280;31738;50.188;8.524;2024-01-16T15:58:06;98091.78;;;1.99;74.93
46007;BME280;31738;50.188;8.524;2024-01-16T16:00:37;98087.66;;;1.91;75.35
46007;BME280;31738;50.188;8.524;2024-01-16T16:03:39;98098.81;;;1.82;75.08
46007;BME280;31738;50.188;8.524;2024-01-16T16:06:35;98097.56;;;1.72;75.59
46007;BME280;31738;50.188;8.524;2024-01-16T16:13:33;98099.44;;;1.49;75.73
46007;BME280;31738;50.188;8.524;2024-01-16T16:16:10;98091.19;;;1.45;75.88
46007;BME280;31738;50.188;8.524;2024-01-16T16:19:10;98094.41;;;1.36;75.95
46007;BME280;31738;50.188;8.524;2024-01-16T16:22:15;98087.16;;;1.31;75.82
46007;BME280;31738;50.188;8.524;2024-01-16T16:28:28;98079.13;;;1.15;76.21
46007;BME280;31738;50.188;8.524;2024-01-16T16:31:02;98081.53;;;1.16;76.44
46007;BME280;31738;50.188;8.524;2024-01-16T16:40:57;98095.88;;;0.97;76.31
46007;BME280;31738;50.188;8.524;2024-01-16T16:43:53;98105.75;;;0.90;76.27
46007;BME280;31738;50.188;8.524;2024-01-16T16:46:27;98108.38;;;0.90;76.34
46007;BME280;31738;50.188;8.524;2024-01-16T16:49:04;98101.38;;;0.84;76.46
46007;BME280;31738;50.188;8.524;2024-01-16T16:51:34;98106.44;;;0.86;76.63
46007;BME280;31738;50.188;8.524;2024-01-16T16:54:14;98099.28;;;0.86;76.70
46007;BME280;31738;50.188;8.524;2024-01-16T16:56:43;98097.81;;;0.90;76.28
46007;BME280;31738;50.188;8.524;2024-01-16T16:59:10;98096.78;;;0.91;76.46
46007;BME280;31738;50.188;8.524;2024-01-16T17:01:43;98095.50;;;0.94;76.34
46007;BME280;31738;50.188;8.524;2024-01-16T17:04:13;98085.53;;;0.96;76.57
46007;BME280;31738;50.188;8.524;2024-01-16T17:06:43;98086.13;;;0.98;76.51
46007;BME280;31738;50.188;8.524;2024-01-16T17:09:15;98079.56;;;1.00;76.26
46007;BME280;31738;50.188;8.524;2024-01-16T17:11:47;98081.16;;;1.01;76.32
46007;BME280;31738;50.188;8.524;2024-01-16T17:14:18;98079.56;;;1.00;76.37
46007;BME280;31738;50.188;8.524;2024-01-16T17:17:32;98087.25;;;0.90;76.29
46007;BME280;31738;50.188;8.524;2024-01-16T17:20:09;98084.25;;;0.87;76.77
46007;BME280;31738;50.188;8.524;2024-01-16T17:25:35;98073.69;;;0.75;76.52
46007;BME280;31738;50.188;8.524;2024-01-16T17:37:28;98073.06;;;0.50;77.17
46007;BME280;31738;50.188;8.524;2024-01-16T17:40:48;98074.41;;;0.41;77.21
46007;BME280;31738;50.188;8.524;2024-01-16T17:56:34;98073.13;;;0.03;77.32
46007;BME280;31738;50.188;8.524;2024-01-16T18:03:24;98054.72;;;-0.16;77.56
46007;BME280;31738;50.188;8.524;2024-01-16T18:11:05;98034.19;;;-0.14;76.97
46007;BME280;31738;50.188;8.524;2024-01-16T18:14:21;98028.59;;;-0.17;77.38
46007;BME280;31738;50.188;8.524;2024-01-16T18:27:58;98025.50;;;-0.32;77.20
46007;BME280;31738;50.188;8.524;2024-01-16T18:30:56;98017.38;;;-0.31;77.46
46007;BME280;31738;50.188;8.524;2024-01-16T18:33:45;98012.56;;;-0.34;77.16
46007;BME280;31738;50.188;8.524;2024-01-16T18:40:18;98017.78;;;-0.45;77.39
46007;BME280;31738;50.188;8.524;2024-01-16T18:43:56;98003.91;;;-0.52;77.88
46007;BME280;31738;50.188;8.524;2024-01-16T18:47:36;97995.03;;;-0.58;77.63
46007;BME280;31738;50.188;8.524;2024-01-16T18:50:17;97986.91;;;-0.56;77.92
46007;BME280;31738;50.188;8.524;2024-01-16T18:53:15;97980.06;;;-0.57;77.51
46007;BME280;31738;50.188;8.524;2024-01-16T18:56:25;97977.28;;;-0.62;78.14
46007;BME280;31738;50.188;8.524;2024-01-16T18:59:20;97968.22;;;-0.66;77.55
46007;BME280;31738;50.188;8.524;2024-01-16T19:02:15;97972.91;;;-0.68;78.17
46007;BME280;31738;50.188;8.524;2024-01-16T19:04:49;97978.16;;;-0.68;78.07
46007;BME280;31738;50.188;8.524;2024-01-16T19:07:49;97976.56;;;-0.69;77.84
46007;BME280;31738;50.188;8.524;2024-01-16T19:13:57;97973.63;;;-0.79;77.79
46007;BME280;31738;50.188;8.524;2024-01-16T19:34:15;97947.31;;;-1.15;77.87
46007;BME280;31738;50.188;8.524;2024-01-16T19:48:48;97941.63;;;-1.30;78.41
46007;BME280;31738;50.188;8.524;2024-01-16T19:52:47;97928.31;;;-1.35;78.13
46007;BME280;31738;50.188;8.524;2024-01-16T20:24:36;97907.19;;;-1.72;78.54
46007;BME280;31738;50.188;8.524;2024-01-16T20:42:10;97895.53;;;-1.76;78.32
46007;BME280;31738;50.188;8.524;2024-01-16T20:45:20;97894.34;;;-1.80;78.58
46007;BME280;31738;50.188;8.524;2024-01-16T20:53:12;97896.88;;;-1.91;78.72
46007;BME280;31738;50.188;8.524;2024-01-16T20:56:33;97901.72;;;-1.95;78.55
46007;BME280;31738;50.188;8.524;2024-01-16T20:59:22;97889.19;;;-1.93;78.60
46007;BME280;31738;50.188;8.524;2024-01-16T21:02:29;97899.69;;;-1.93;78.67
46007;BME280;31738;50.188;8.524;2024-01-16T21:05:17;97892.84;;;-1.94;78.62